Time;durP1;ratioP1;P1;durP2;ratioP2;P2;SDS_P1;SDS_P2;PMS_P1;PMS_P2;Temp;Humidity;BMP_temperature;BMP_pressure;BME280_temperature;BME280_humidity;BME280_pressure;Samples;Min_cycle;Max_cycle;Signal;HPM_P1;HPM_P2
2022/09/17 00:01:16;;;;;;;3.90;1.47;;;;;;;;;;5075151;28;20517;-58
2022/09/17 00:03:45;;;;;;;1.47;1.20;;;;;;;;;;5074937;28;20506;-57
2022/09/17 00:06:12;;;;;;;4.10;1.30;;;;;;;;;;5074954;28;20439;-58
2022/09/17 00:08:40;;;;;;;2.30;1.10;;;;;;;;;;5074755;28;20485;-57
2022/09/17 00:11:07;;;;;;;4.30;1.63;;;;;;;;;;5074667;28;21026;-57
2022/09/17 00:13:34;;;;;;;2.37;1.47;;;;;;;;;;5074676;28;20462;-57
2022/09/17 00:16:01;;;;;;;6.73;1.90;;;;;;;;;;5074629;28;20935;-57
2022/09/17 00:18:28;;;;;;;4.80;2.30;;;;;;;;;;5073962;28;20966;-57
2022/09/17 00:20:57;;;;;;;4.13;1.47;;;;;;;;;;5074679;28;20481;-57
2022/09/17 00:23:24;;;;;;;2.90;1.80;;;;;;;;;;5074513;28;20447;-57
2022/09/17 00:25:51;;;;;;;6.77;3.23;;;;;;;;;;5074382;28;20455;-57
2022/09/17 00:28:18;;;;;;;3.83;1.30;;;;;;;;;;5074456;28;20467;-58
2022/09/17 00:30:45;;;;;;;5.67;1.50;;;;;;;;;;5074580;28;20447;-57
2022/09/17 00:33:13;;;;;;;5.83;2.00;;;;;;;;;;5074387;28;20454;-57
2022/09/17 00:35:40;;;;;;;3.70;1.47;;;;;;;;;;5074230;28;20448;-57
2022/09/17 00:38:08;;;;;;;3.80;1.83;;;;;;;;;;5074262;28;20907;-58
2022/09/17 00:40:35;;;;;;;4.90;2.03;;;;;;;;;;5074358;28;20459;-58
2022/09/17 00:43:02;;;;;;;4.70;1.63;;;;;;;;;;5074246;28;20447;-58
2022/09/17 00:45:31;;;;;;;3.90;1.80;;;;;;;;;;5074136;28;20448;-59
2022/09/17 00:47:58;;;;;;;2.87;1.40;;;;;;;;;;5073838;28;20509;-59
2022/09/17 00:50:28;;;;;;;3.47;1.87;;;;;;;;;;5074032;28;20447;-59
2022/09/17 00:52:56;;;;;;;4.70;1.77;;;;;;;;;;5074105;28;20807;-59
2022/09/17 00:55:26;;;;;;;3.10;1.80;;;;;;;;;;5074016;28;20448;-59
2022/09/17 00:57:55;;;;;;;4.93;1.50;;;;;;;;;;5074052;28;20906;-59
2022/09/17 01:00:22;;;;;;;3.33;1.60;;;;;;;;;;5073866;28;20477;-58
2022/09/17 01:02:49;;;;;;;3.60;1.90;;;;;;;;;;5073747;28;20490;-58
2022/09/17 01:05:17;;;;;;;2.47;1.60;;;;;;;;;;5073700;28;20562;-58
2022/09/17 01:07:51;;;;;;;6.90;1.67;;;;;;;;;;5073662;28;20451;-58
2022/09/17 01:10:27;;;;;;;6.93;2.30;;;;;;;;;;5073677;28;20566;-58
2022/09/17 01:13:03;;;;;;;3.73;1.83;;;;;;;;;;5073632;28;20810;-58
2022/09/17 01:15:34;;;;;;;4.30;2.17;;;;;;;;;;5073578;28;20447;-59
2022/09/17 01:18:10;;;;;;;4.00;2.03;;;;;;;;;;5073410;28;20443;-59
2022/09/17 01:20:46;;;;;;;3.30;1.90;;;;;;;;;;5073762;28;20798;-58
2022/09/17 01:23:32;;;;;;;5.30;1.83;;;;;;;;;;5073431;28;20447;-59
2022/09/17 01:26:06;;;;;;;8.27;2.50;;;;;;;;;;5073392;28;20447;-59
2022/09/17 01:28:40;;;;;;;5.33;1.80;;;;;;;;;;5073147;28;20959;-58
2022/09/17 01:31:18;;;;;;;5.57;2.30;;;;;;;;;;5072717;28;20447;-58
2022/09/17 01:33:49;;;;;;;4.20;1.80;;;;;;;;;;5073314;28;20483;-58
2022/09/17 01:36:25;;;;;;;5.43;1.60;;;;;;;;;;5073241;28;20497;-59
2022/09/17 01:38:55;;;;;;;3.07;1.57;;;;;;;;;;5073565;28;20453;-58
2022/09/17 01:41:27;;;;;;;5.70;1.80;;;;;;;;;;5073258;28;20447;-58
2022/09/17 01:43:56;;;;;;;2.43;1.60;;;;;;;;;;5073242;28;20810;-58
2022/09/17 01:46:27;;;;;;;4.43;1.90;;;;;;;;;;5073074;28;20447;-58
2022/09/17 01:48:57;;;;;;;3.13;2.63;;;;;;;;;;5072815;28;20483;-58
2022/09/17 01:51:25;;;;;;;3.27;1.80;;;;;;;;;;5072886;28;20447;-58
2022/09/17 01:53:54;;;;;;;3.03;2.00;;;;;;;;;;5072998;28;20977;-58
2022/09/17 01:56:23;;;;;;;4.17;2.30;;;;;;;;;;5073074;28;20479;-59
2022/09/17 01:58:52;;;;;;;3.63;1.80;;;;;;;;;;5072932;28;20491;-58
2022/09/17 02:01:21;;;;;;;2.57;1.77;;;;;;;;;;5072875;28;20505;-58
2022/09/17 02:03:52;;;;;;;6.63;2.23;;;;;;;;;;5072693;28;20473;-58
2022/09/17 02:06:22;;;;;;;6.30;1.83;;;;;;;;;;5072808;28;20444;-58
2022/09/17 02:08:51;;;;;;;2.00;1.50;;;;;;;;;;5072845;28;20471;-58
2022/09/17 02:11:19;;;;;;;7.43;2.10;;;;;;;;;;5072781;28;20454;-58
2022/09/17 02:13:48;;;;;;;6.90;2.63;;;;;;;;;;5072739;28;20454;-58
2022/09/17 02:16:18;;;;;;;2.53;1.53;;;;;;;;;;5072641;28;20453;-59
2022/09/17 02:18:47;;;;;;;5.93;2.80;;;;;;;;;;5072869;28;20861;-59
2022/09/17 02:21:16;;;;;;;2.90;1.33;;;;;;;;;;5072597;28;21020;-59
2022/09/17 02:23:48;;;;;;;4.30;1.80;;;;;;;;;;5072656;28;20443;-59
2022/09/17 02:26:17;;;;;;;2.10;1.20;;;;;;;;;;5072649;28;20537;-59
2022/09/17 02:28:46;;;;;;;3.13;1.50;;;;;;;;;;5072450;28;20450;-59
2022/09/17 02:31:13;;;;;;;3.33;1.70;;;;;;;;;;5072970;28;20542;-59
2022/09/17 02:33:41;;;;;;;1.83;1.30;;;;;;;;;;5072581;28;20520;-58
2022/09/17 02:36:09;;;;;;;2.27;1.63;;;;;;;;;;5072584;28;20892;-58
2022/09/17 02:38:38;;;;;;;4.10;1.50;;;;;;;;;;5072460;28;20454;-58
2022/09/17 02:41:10;;;;;;;7.57;2.40;;;;;;;;;;5073558;28;20454;-58
2022/09/17 02:43:41;;;;;;;3.80;2.03;;;;;;;;;;5076292;28;20451;-58
2022/09/17 02:46:17;;;;;;;3.93;1.50;;;;;;;;;;5076585;28;20505;-58
2022/09/17 02:48:51;;;;;;;2.27;1.50;;;;;;;;;;5076077;28;20474;-58
2022/09/17 02:51:24;;;;;;;3.43;1.70;;;;;;;;;;5076278;28;20959;-58
2022/09/17 02:53:57;;;;;;;3.43;1.60;;;;;;;;;;5076092;28;20871;-58
2022/09/17 02:56:29;;;;;;;9.00;1.70;;;;;;;;;;5076300;28;20458;-58
2022/09/17 02:58:58;;;;;;;7.90;2.17;;;;;;;;;;5076270;28;20802;-58
2022/09/17 03:01:29;;;;;;;2.00;1.67;;;;;;;;;;5076202;28;20543;-58
2022/09/17 03:03:58;;;;;;;4.73;1.80;;;;;;;;;;5076107;28;20451;-58
2022/09/17 03:06:26;;;;;;;3.20;1.93;;;;;;;;;;5075895;28;21002;-59
2022/09/17 03:08:56;;;;;;;3.60;2.33;;;;;;;;;;5076040;28;20447;-59
2022/09/17 03:11:23;;;;;;;4.20;1.60;;;;;;;;;;5076223;28;20449;-59
2022/09/17 03:13:49;;;;;;;11.30;2.63;;;;;;;;;;5075806;28;20447;-58
2022/09/17 03:16:16;;;;;;;3.20;1.67;;;;;;;;;;5075803;28;20443;-58
2022/09/17 03:18:43;;;;;;;7.63;2.00;;;;;;;;;;5075672;28;20469;-59
2022/09/17 03:21:11;;;;;;;5.40;2.13;;;;;;;;;;5075824;28;20447;-59
2022/09/17 03:23:38;;;;;;;3.83;2.10;;;;;;;;;;5075766;28;20541;-59
2022/09/17 03:26:07;;;;;;;4.53;2.07;;;;;;;;;;5075799;28;20811;-59
2022/09/17 03:28:34;;;;;;;6.37;2.30;;;;;;;;;;5075576;28;20451;-58
2022/09/17 03:31:01;;;;;;;5.73;2.13;;;;;;;;;;5075464;28;20483;-58
2022/09/17 03:33:28;;;;;;;5.13;2.23;;;;;;;;;;5075393;28;20838;-59
2022/09/17 03:35:55;;;;;;;4.37;2.10;;;;;;;;;;5075608;28;20448;-59
2022/09/17 03:38:22;;;;;;;2.20;1.47;;;;;;;;;;5075496;28;20458;-58
2022/09/17 03:40:57;;;;;;;3.27;2.07;;;;;;;;;;5075402;28;20560;-59
2022/09/17 03:43:25;;;;;;;3.57;1.47;;;;;;;;;;5075300;28;20814;-59
2022/09/17 03:45:53;;;;;;;6.10;2.37;;;;;;;;;;5075155;28;20501;-59
2022/09/17 03:48:20;;;;;;;3.10;1.90;;;;;;;;;;5075138;28;21005;-59
2022/09/17 03:50:46;;;;;;;9.77;2.20;;;;;;;;;;5075206;28;20487;-58
2022/09/17 03:53:14;;;;;;;5.50;2.27;;;;;;;;;;5074254;28;20435;-58
2022/09/17 03:55:41;;;;;;;5.07;2.20;;;;;;;;;;5075184;28;20451;-58
2022/09/17 03:58:08;;;;;;;3.10;1.80;;;;;;;;;;5075179;28;20540;-57
2022/09/17 04:00:37;;;;;;;5.57;2.20;;;;;;;;;;5074904;28;20459;-57
2022/09/17 04:03:04;;;;;;;2.33;1.93;;;;;;;;;;5074989;28;20447;-57
2022/09/17 04:05:30;;;;;;;7.13;1.77;;;;;;;;;;5075086;28;20497;-57
2022/09/17 04:07:58;;;;;;;6.00;3.97;;;;;;;;;;5074912;28;20492;-57
2022/09/17 04:10:25;;;;;;;6.47;1.90;;;;;;;;;;5074770;28;20483;-57
2022/09/17 04:12:52;;;;;;;3.30;2.00;;;;;;;;;;5074517;28;20935;-57
2022/09/17 04:15:19;;;;;;;7.43;2.40;;;;;;;;;;5074823;28;20454;-57
2022/09/17 04:17:47;;;;;;;4.70;2.00;;;;;;;;;;5074773;28;20447;-57
2022/09/17 04:20:14;;;;;;;7.23;2.23;;;;;;;;;;5074695;28;20529;-57
2022/09/17 04:22:42;;;;;;;2.93;2.00;;;;;;;;;;5074568;28;20803;-57
2022/09/17 04:25:10;;;;;;;3.77;2.00;;;;;;;;;;5074399;28;20971;-57
2022/09/17 04:27:36;;;;;;;5.70;1.80;;;;;;;;;;5074395;28;20526;-57
2022/09/17 04:30:04;;;;;;;4.43;1.93;;;;;;;;;;5074466;28;20483;-57
2022/09/17 04:32:31;;;;;;;9.17;1.73;;;;;;;;;;5074368;28;20473;-57
2022/09/17 04:34:59;;;;;;;4.57;1.37;;;;;;;;;;5074437;28;20496;-58
2022/09/17 04:37:26;;;;;;;6.30;1.97;;;;;;;;;;5074322;28;20530;-58
2022/09/17 04:39:53;;;;;;;6.80;2.40;;;;;;;;;;5074137;28;20448;-58
2022/09/17 04:42:20;;;;;;;3.20;1.70;;;;;;;;;;5074020;28;20458;-57
2022/09/17 04:44:47;;;;;;;7.30;1.60;;;;;;;;;;5074263;28;20450;-58
2022/09/17 04:47:14;;;;;;;2.47;1.67;;;;;;;;;;5073970;28;20561;-57
2022/09/17 04:49:41;;;;;;;4.30;1.87;;;;;;;;;;5074139;28;20566;-58
2022/09/17 04:52:09;;;;;;;5.80;2.10;;;;;;;;;;5073931;28;20863;-58
2022/09/17 04:54:36;;;;;;;5.70;1.60;;;;;;;;;;5073950;28;20454;-58
2022/09/17 04:57:03;;;;;;;8.03;2.27;;;;;;;;;;5074017;28;20469;-58
2022/09/17 04:59:29;;;;;;;2.80;1.63;;;;;;;;;;5074031;28;20443;-57
2022/09/17 05:01:56;;;;;;;4.90;1.97;;;;;;;;;;5073908;28;20447;-57
2022/09/17 05:04:23;;;;;;;3.87;1.60;;;;;;;;;;5073613;28;20443;-58
2022/09/17 05:06:51;;;;;;;4.43;2.37;;;;;;;;;;5073687;28;20469;-58
2022/09/17 05:09:19;;;;;;;4.10;2.43;;;;;;;;;;5073582;28;20443;-58
2022/09/17 05:11:46;;;;;;;3.80;1.93;;;;;;;;;;5073816;28;20459;-58
2022/09/17 05:14:13;;;;;;;3.30;1.73;;;;;;;;;;5073680;28;20452;-57
2022/09/17 05:16:40;;;;;;;4.40;1.90;;;;;;;;;;5073662;28;20490;-58
2022/09/17 05:19:07;;;;;;;4.63;1.90;;;;;;;;;;5073530;28;20823;-57
2022/09/17 05:21:34;;;;;;;5.20;2.07;;;;;;;;;;5073411;28;20459;-57
2022/09/17 05:24:01;;;;;;;3.40;1.80;;;;;;;;;;5073336;28;20447;-58
2022/09/17 05:26:30;;;;;;;4.63;1.80;;;;;;;;;;5073524;28;20539;-57
2022/09/17 05:28:57;;;;;;;4.53;1.63;;;;;;;;;;5073416;28;20452;-60
2022/09/17 05:31:23;;;;;;;3.40;1.97;;;;;;;;;;5073242;28;20489;-59
2022/09/17 05:33:50;;;;;;;5.70;2.63;;;;;;;;;;5073237;28;20546;-60
2022/09/17 05:36:17;;;;;;;9.43;2.37;;;;;;;;;;5072964;28;20454;-60
2022/09/17 05:38:44;;;;;;;6.93;2.27;;;;;;;;;;5073276;28;20454;-58
2022/09/17 05:41:11;;;;;;;6.67;2.30;;;;;;;;;;5073010;28;20935;-58
2022/09/17 05:43:39;;;;;;;3.90;2.00;;;;;;;;;;5073203;28;20454;-60
2022/09/17 05:46:06;;;;;;;3.97;2.27;;;;;;;;;;5073102;28;20879;-58
2022/09/17 05:48:33;;;;;;;4.23;2.57;;;;;;;;;;5072822;28;20507;-60
2022/09/17 05:51:00;;;;;;;3.60;2.30;;;;;;;;;;5072864;28;20487;-60
2022/09/17 05:53:27;;;;;;;6.40;2.23;;;;;;;;;;5073139;28;20454;-57
2022/09/17 05:55:56;;;;;;;7.50;2.20;;;;;;;;;;5073071;28;20447;-57
2022/09/17 05:58:24;;;;;;;8.20;2.23;;;;;;;;;;5073021;28;20479;-57
2022/09/17 06:00:52;;;;;;;2.73;1.60;;;;;;;;;;5072876;28;20452;-57
2022/09/17 06:03:21;;;;;;;5.90;2.20;;;;;;;;;;5072729;28;20447;-58
2022/09/17 06:05:53;;;;;;;3.90;1.77;;;;;;;;;;5072684;28;20447;-57
2022/09/17 06:08:20;;;;;;;5.50;1.87;;;;;;;;;;5073163;28;20451;-58
2022/09/17 06:10:47;;;;;;;3.20;2.03;;;;;;;;;;5072772;28;20483;-58
2022/09/17 06:13:14;;;;;;;8.27;2.27;;;;;;;;;;5072810;28;20443;-58
2022/09/17 06:15:41;;;;;;;4.00;1.70;;;;;;;;;;5072194;28;20477;-58
2022/09/17 06:18:09;;;;;;;4.50;1.80;;;;;;;;;;5072926;28;20821;-58
2022/09/17 06:20:36;;;;;;;3.37;1.80;;;;;;;;;;5072842;28;20453;-58
2022/09/17 06:23:03;;;;;;;3.73;2.03;;;;;;;;;;5072814;28;20554;-57
2022/09/17 06:25:30;;;;;;;6.30;2.43;;;;;;;;;;5072605;28;20962;-58
2022/09/17 06:27:57;;;;;;;4.73;1.67;;;;;;;;;;5072613;28;20449;-58
2022/09/17 06:30:24;;;;;;;6.83;2.10;;;;;;;;;;5072338;28;20830;-58
2022/09/17 06:32:51;;;;;;;4.73;1.83;;;;;;;;;;5072733;28;20857;-59
2022/09/17 06:35:19;;;;;;;4.10;1.60;;;;;;;;;;5072501;28;20498;-58
2022/09/17 06:37:47;;;;;;;6.37;2.20;;;;;;;;;;5072578;28;20451;-58
2022/09/17 06:40:14;;;;;;;1.93;1.80;;;;;;;;;;5072521;28;20802;-58
2022/09/17 06:42:41;;;;;;;5.53;2.27;;;;;;;;;;5072519;28;20453;-58
2022/09/17 06:45:08;;;;;;;5.73;2.67;;;;;;;;;;5072313;28;20447;-58
2022/09/17 06:47:35;;;;;;;7.37;2.37;;;;;;;;;;5072026;28;20560;-58
2022/09/17 06:50:02;;;;;;;6.50;2.73;;;;;;;;;;5072476;28;20547;-58
2022/09/17 06:52:31;;;;;;;9.07;3.00;;;;;;;;;;5072376;28;20447;-58
2022/09/17 06:54:57;;;;;;;6.10;2.67;;;;;;;;;;5072432;28;20955;-58
2022/09/17 06:57:24;;;;;;;14.23;2.80;;;;;;;;;;5072316;28;20443;-58
2022/09/17 06:59:51;;;;;;;9.20;3.10;;;;;;;;;;5072498;28;20450;-58
2022/09/17 07:02:18;;;;;;;11.87;3.50;;;;;;;;;;5072379;28;20807;-59
2022/09/17 07:04:45;;;;;;;9.70;3.47;;;;;;;;;;5072517;28;20542;-59
2022/09/17 07:07:12;;;;;;;10.10;3.63;;;;;;;;;;5072285;28;20490;-59
2022/09/17 07:09:40;;;;;;;11.93;2.80;;;;;;;;;;5072253;28;20451;-59
2022/09/17 07:12:08;;;;;;;12.80;3.00;;;;;;;;;;5071963;28;20518;-59
2022/09/17 07:14:35;;;;;;;8.23;3.20;;;;;;;;;;5072325;28;20784;-59
2022/09/17 07:17:02;;;;;;;11.50;2.90;;;;;;;;;;5072230;28;20459;-59
2022/09/17 07:19:29;;;;;;;10.30;3.87;;;;;;;;;;5072081;28;20482;-58
2022/09/17 07:21:56;;;;;;;8.97;3.23;;;;;;;;;;5072131;28;20443;-58
2022/09/17 07:24:23;;;;;;;10.83;2.70;;;;;;;;;;5072025;28;20554;-59
2022/09/17 07:26:51;;;;;;;7.43;2.60;;;;;;;;;;5071953;28;20453;-58
2022/09/17 07:29:19;;;;;;;11.20;2.63;;;;;;;;;;5074885;28;20537;-59
2022/09/17 07:31:46;;;;;;;14.20;3.73;;;;;;;;;;5075608;28;20893;-59
2022/09/17 07:34:13;;;;;;;8.33;4.37;;;;;;;;;;5075490;28;20453;-59
2022/09/17 07:36:40;;;;;;;14.17;2.93;;;;;;;;;;5075455;28;20454;-59
2022/09/17 07:39:08;;;;;;;12.97;4.10;;;;;;;;;;5075339;28;20454;-58
2022/09/17 07:41:35;;;;;;;10.70;4.10;;;;;;;;;;5075673;28;20978;-58
2022/09/17 07:44:05;;;;;;;10.40;3.00;;;;;;;;;;5075413;28;20453;-58
2022/09/17 07:46:32;;;;;;;7.93;2.63;;;;;;;;;;5075309;28;20458;-59
2022/09/17 07:48:59;;;;;;;14.40;3.23;;;;;;;;;;5075105;28;20497;-59
2022/09/17 07:51:27;;;;;;;9.07;2.70;;;;;;;;;;5075059;28;20834;-58
2022/09/17 07:53:54;;;;;;;11.17;2.60;;;;;;;;;;5074929;28;20452;-58
2022/09/17 07:56:22;;;;;;;13.50;4.30;;;;;;;;;;5075221;28;20447;-58
2022/09/17 07:58:48;;;;;;;13.93;3.83;;;;;;;;;;5075158;28;20861;-58
2022/09/17 08:01:19;;;;;;;11.97;2.63;;;;;;;;;;5075037;28;20447;-59
2022/09/17 08:03:48;;;;;;;7.87;2.53;;;;;;;;;;5074892;28;20455;-59
2022/09/17 08:06:16;;;;;;;7.00;2.20;;;;;;;;;;5074760;28;20451;-59
2022/09/17 08:08:43;;;;;;;9.50;2.17;;;;;;;;;;5074917;28;20806;-59
2022/09/17 08:11:11;;;;;;;10.93;2.33;;;;;;;;;;5075004;28;20826;-58
2022/09/17 08:13:38;;;;;;;9.00;2.70;;;;;;;;;;5074878;28;20474;-58
2022/09/17 08:16:07;;;;;;;7.07;2.50;;;;;;;;;;5074767;28;20504;-58
2022/09/17 08:18:35;;;;;;;11.23;2.87;;;;;;;;;;5074594;28;20927;-58
2022/09/17 08:21:03;;;;;;;8.43;2.80;;;;;;;;;;5074532;28;20913;-58
2022/09/17 08:23:31;;;;;;;10.50;2.93;;;;;;;;;;5074745;28;20444;-58
2022/09/17 08:25:59;;;;;;;8.63;2.00;;;;;;;;;;5074614;28;20448;-58
2022/09/17 08:28:26;;;;;;;4.90;2.10;;;;;;;;;;5074462;28;20444;-59
2022/09/17 08:30:54;;;;;;;5.97;2.40;;;;;;;;;;5074336;28;20478;-58
2022/09/17 08:33:21;;;;;;;6.47;2.10;;;;;;;;;;5075282;28;20451;-60
2022/09/17 08:35:53;;;;;;;8.77;2.50;;;;;;;;;;5074585;28;20814;-60
2022/09/17 08:38:20;;;;;;;5.13;1.70;;;;;;;;;;5073982;28;20454;-59
2022/09/17 08:40:55;;;;;;;9.60;2.60;;;;;;;;;;5074292;28;20550;-60
2022/09/17 08:43:23;;;;;;;7.73;3.63;;;;;;;;;;5074159;28;20457;-60
2022/09/17 08:45:53;;;;;;;8.23;2.43;;;;;;;;;;5074063;28;20530;-60
2022/09/17 08:48:20;;;;;;;10.73;2.77;;;;;;;;;;5073963;28;20582;-60
2022/09/17 08:50:47;;;;;;;10.57;1.80;;;;;;;;;;5074032;28;20455;-60
2022/09/17 08:53:21;;;;;;;5.00;1.93;;;;;;;;;;5074080;28;20509;-59
2022/09/17 08:55:52;;;;;;;14.43;3.87;;;;;;;;;;5074093;28;20562;-60
2022/09/17 08:58:38;;;;;;;10.07;2.57;;;;;;;;;;5073840;28;20780;-60
2022/09/17 09:01:12;;;;;;;4.43;2.00;;;;;;;;;;5073971;28;20465;-60
2022/09/17 09:03:44;;;;;;;4.77;2.17;;;;;;;;;;5073782;28;20450;-60
2022/09/17 09:06:12;;;;;;;6.57;2.20;;;;;;;;;;5073698;28;20996;-60
2022/09/17 09:08:43;;;;;;;8.73;1.97;;;;;;;;;;5073552;28;20452;-60
2022/09/17 09:11:13;;;;;;;6.27;2.00;;;;;;;;;;5073771;28;20575;-60
2022/09/17 09:13:42;;;;;;;6.47;1.80;;;;;;;;;;5073636;28;20451;-60
2022/09/17 09:16:13;;;;;;;6.33;1.93;;;;;;;;;;5073466;28;20452;-60
2022/09/17 09:18:41;;;;;;;4.93;2.30;;;;;;;;;;5073357;28;20448;-60
2022/09/17 09:21:15;;;;;;;9.87;2.27;;;;;;;;;;5073288;28;20452;-60
2022/09/17 09:23:46;;;;;;;9.60;2.00;;;;;;;;;;5073285;28;20448;-61
2022/09/17 09:26:16;;;;;;;5.93;1.50;;;;;;;;;;5073299;28;20447;-60
2022/09/17 09:28:49;;;;;;;5.17;1.80;;;;;;;;;;5073362;28;20479;-60
2022/09/17 09:31:22;;;;;;;5.77;1.60;;;;;;;;;;5073167;28;20468;-59
2022/09/17 09:33:49;;;;;;;5.30;2.07;;;;;;;;;;5073097;28;20452;-59
2022/09/17 09:36:20;;;;;;;3.10;1.50;;;;;;;;;;5073083;28;20454;-59
2022/09/17 09:38:49;;;;;;;2.27;1.13;;;;;;;;;;5073230;28;20451;-59
2022/09/17 09:41:19;;;;;;;6.70;1.83;;;;;;;;;;5073024;28;20547;-59
2022/09/17 09:43:46;;;;;;;6.10;2.00;;;;;;;;;;5072894;28;20820;-60
2022/09/17 09:46:21;;;;;;;4.93;1.53;;;;;;;;;;5072805;28;20799;-60
2022/09/17 09:48:55;;;;;;;6.90;2.43;;;;;;;;;;5072782;28;20467;-59
2022/09/17 09:51:29;;;;;;;4.00;1.50;;;;;;;;;;5072129;28;20481;-59
2022/09/17 09:54:04;;;;;;;5.40;1.70;;;;;;;;;;5072931;28;20541;-59
2022/09/17 09:56:46;;;;;;;4.63;2.17;;;;;;;;;;5072806;28;20447;-60
2022/09/17 09:59:13;;;;;;;3.40;1.73;;;;;;;;;;5072698;28;20931;-59
2022/09/17 10:01:41;;;;;;;5.30;2.20;;;;;;;;;;5072795;28;20451;-59
2022/09/17 10:04:15;;;;;;;6.67;2.07;;;;;;;;;;5072744;28;20597;-59
2022/09/17 10:06:42;;;;;;;5.60;1.70;;;;;;;;;;5072662;28;20500;-59
2022/09/17 10:09:12;;;;;;;7.60;2.27;;;;;;;;;;5072430;28;20449;-59
2022/09/17 10:11:39;;;;;;;4.50;1.50;;;;;;;;;;5072709;28;20482;-60
2022/09/17 10:14:16;;;;;;;7.97;1.70;;;;;;;;;;5072466;28;20945;-59
2022/09/17 10:16:43;;;;;;;5.70;1.83;;;;;;;;;;5072679;28;20449;-60
2022/09/17 10:19:12;;;;;;;6.13;2.00;;;;;;;;;;5072661;28;20506;-60
2022/09/17 10:21:41;;;;;;;3.60;1.40;;;;;;;;;;5072482;28;20456;-60
2022/09/17 10:24:16;;;;;;;4.63;1.93;;;;;;;;;;5072675;28;20802;-60
2022/09/17 10:26:43;;;;;;;7.90;1.83;;;;;;;;;;5072957;28;20983;-59
2022/09/17 10:29:13;;;;;;;9.83;2.93;;;;;;;;;;5072711;28;20450;-59
2022/09/17 10:31:47;;;;;;;2.77;1.33;;;;;;;;;;5072743;28;20471;-59
2022/09/17 10:34:19;;;;;;;2.80;1.43;;;;;;;;;;5072517;28;20950;-60
2022/09/17 10:36:47;;;;;;;7.23;2.23;;;;;;;;;;5072521;28;20452;-59
2022/09/17 10:39:20;;;;;;;6.60;2.20;;;;;;;;;;5072498;28;20458;-59
2022/09/17 10:41:54;;;;;;;4.87;1.67;;;;;;;;;;5072457;28;20447;-59
2022/09/17 10:44:22;;;;;;;6.57;2.27;;;;;;;;;;5072202;28;20533;-59
2022/09/17 10:46:50;;;;;;;8.40;3.07;;;;;;;;;;5072073;28;20497;-59
2022/09/17 10:49:21;;;;;;;5.37;1.93;;;;;;;;;;5072153;28;20947;-60
2022/09/17 10:51:48;;;;;;;7.10;1.93;;;;;;;;;;5071890;28;21013;-60
2022/09/17 10:54:23;;;;;;;4.73;1.50;;;;;;;;;;5072141;28;20825;-59
2022/09/17 10:56:53;;;;;;;3.30;1.43;;;;;;;;;;5072038;28;20965;-59
2022/09/17 10:59:38;;;;;;;5.70;1.93;;;;;;;;;;5072168;28;20458;-59
2022/09/17 11:02:09;;;;;;;4.03;1.40;;;;;;;;;;5073411;28;20447;-59
2022/09/17 11:04:42;;;;;;;6.60;2.67;;;;;;;;;;5075873;28;20457;-59
2022/09/17 11:07:26;;;;;;;7.03;2.07;;;;;;;;;;5075536;28;20452;-60
2022/09/17 11:09:56;;;;;;;5.20;1.60;;;;;;;;;;5075923;28;20451;-58
2022/09/17 11:12:40;;;;;;;5.27;2.30;;;;;;;;;;5075727;28;20483;-60
2022/09/17 11:15:16;;;;;;;2.63;1.67;;;;;;;;;;5075719;28;20930;-59
2022/09/17 11:17:55;;;;;;;11.07;2.07;;;;;;;;;;5075700;28;20459;-59
2022/09/17 11:20:28;;;;;;;7.00;1.57;;;;;;;;;;5075687;28;20439;-61
2022/09/17 11:22:59;;;;;;;5.03;1.40;;;;;;;;;;5075649;28;20807;-59
2022/09/17 11:25:32;;;;;;;5.53;1.60;;;;;;;;;;5075642;28;20451;-59
2022/09/17 11:28:07;;;;;;;9.50;2.33;;;;;;;;;;5075531;28;20538;-59
2022/09/17 11:30:40;;;;;;;8.23;2.50;;;;;;;;;;5075259;28;20957;-60
2022/09/17 11:33:15;;;;;;;6.73;1.77;;;;;;;;;;5075269;28;20489;-59
2022/09/17 11:35:47;;;;;;;6.77;2.00;;;;;;;;;;5075144;28;20449;-60
2022/09/17 11:38:16;;;;;;;6.23;1.83;;;;;;;;;;5075192;28;20447;-60
2022/09/17 11:40:44;;;;;;;3.97;1.43;;;;;;;;;;5074991;28;20543;-60
2022/09/17 11:43:26;;;;;;;4.07;1.40;;;;;;;;;;5074993;28;20935;-59
2022/09/17 11:45:58;;;;;;;5.80;1.67;;;;;;;;;;5075194;28;20538;-59
2022/09/17 11:48:29;;;;;;;5.60;2.40;;;;;;;;;;5074900;28;20471;-59
2022/09/17 11:50:57;;;;;;;5.33;1.90;;;;;;;;;;5075020;28;20454;-59
2022/09/17 11:53:29;;;;;;;3.07;1.23;;;;;;;;;;5074764;28;20482;-59
2022/09/17 11:55:57;;;;;;;6.07;1.77;;;;;;;;;;5074960;28;20958;-59
2022/09/17 11:58:28;;;;;;;5.90;2.03;;;;;;;;;;5074926;28;20465;-59
2022/09/17 12:01:04;;;;;;;2.57;1.30;;;;;;;;;;5074860;28;21018;-59
2022/09/17 12:03:34;;;;;;;4.07;1.40;;;;;;;;;;5074796;28;20539;-59
2022/09/17 12:06:04;;;;;;;3.57;1.70;;;;;;;;;;5074668;28;20450;-59
2022/09/17 12:08:34;;;;;;;4.63;1.47;;;;;;;;;;5074841;28;20536;-59
2022/09/17 12:11:06;;;;;;;4.70;1.77;;;;;;;;;;5074735;28;20455;-59
2022/09/17 12:13:35;;;;;;;6.23;1.40;;;;;;;;;;5073650;28;20846;-59
2022/09/17 12:16:11;;;;;;;5.80;1.63;;;;;;;;;;5074384;28;20539;-59
2022/09/17 12:18:45;;;;;;;2.50;1.27;;;;;;;;;;5074559;28;20461;-59
2022/09/17 12:21:15;;;;;;;3.17;1.20;;;;;;;;;;5074565;28;20447;-60
2022/09/17 12:23:45;;;;;;;3.30;1.30;;;;;;;;;;5074386;28;20462;-59
2022/09/17 12:26:18;;;;;;;5.23;1.77;;;;;;;;;;5074316;28;20448;-59
2022/09/17 12:28:54;;;;;;;6.70;2.47;;;;;;;;;;5074118;28;20451;-59
2022/09/17 12:31:24;;;;;;;4.33;1.93;;;;;;;;;;5074420;28;20458;-60
2022/09/17 12:33:54;;;;;;;2.33;1.60;;;;;;;;;;5074194;28;20489;-60
2022/09/17 12:36:34;;;;;;;4.47;2.03;;;;;;;;;;5074060;28;20451;-59
2022/09/17 12:39:10;;;;;;;5.80;1.57;;;;;;;;;;5074021;28;20459;-60
2022/09/17 12:41:46;;;;;;;9.27;2.07;;;;;;;;;;5074097;28;20451;-60
2022/09/17 12:44:23;;;;;;;4.03;1.27;;;;;;;;;;5073919;28;20460;-59
2022/09/17 12:46:58;;;;;;;3.37;1.73;;;;;;;;;;5073930;28;20446;-61
2022/09/17 12:49:32;;;;;;;6.20;1.30;;;;;;;;;;5073696;28;20454;-59
2022/09/17 12:52:00;;;;;;;4.80;1.30;;;;;;;;;;5073867;28;20447;-59
2022/09/17 12:54:37;;;;;;;1.70;1.00;;;;;;;;;;5073514;28;20524;-60
2022/09/17 12:57:07;;;;;;;1.27;0.73;;;;;;;;;;5073759;28;20447;-59
2022/09/17 12:59:37;;;;;;;1.80;1.03;;;;;;;;;;5073578;28;20497;-59
2022/09/17 13:02:09;;;;;;;3.17;1.13;;;;;;;;;;5073351;28;20802;-59
2022/09/17 13:04:49;;;;;;;2.20;1.07;;;;;;;;;;5073302;28;20939;-59
2022/09/17 13:07:29;;;;;;;2.30;0.83;;;;;;;;;;5073449;28;20470;-59
2022/09/17 13:10:15;;;;;;;2.70;1.00;;;;;;;;;;5073332;28;20538;-59
2022/09/17 13:12:45;;;;;;;1.83;1.17;;;;;;;;;;5073165;28;20941;-59
2022/09/17 13:15:29;;;;;;;2.90;1.17;;;;;;;;;;5073507;28;20448;-59
2022/09/17 13:17:59;;;;;;;3.20;1.20;;;;;;;;;;5073456;28;20447;-59
2022/09/17 13:20:27;;;;;;;5.17;1.47;;;;;;;;;;5073252;28;20534;-59
2022/09/17 13:22:56;;;;;;;4.20;1.20;;;;;;;;;;5073048;28;20452;-59
2022/09/17 13:25:23;;;;;;;4.33;1.27;;;;;;;;;;5073199;28;20465;-59
2022/09/17 13:27:51;;;;;;;3.60;1.27;;;;;;;;;;5073209;28;20959;-59
2022/09/17 13:30:19;;;;;;;4.50;1.20;;;;;;;;;;5073122;28;20979;-59
2022/09/17 13:32:49;;;;;;;4.30;1.30;;;;;;;;;;5073063;28;20482;-59
2022/09/17 13:35:34;;;;;;;1.80;0.93;;;;;;;;;;5072928;28;20501;-59
2022/09/17 13:38:01;;;;;;;4.23;1.20;;;;;;;;;;5072891;28;20451;-59
2022/09/17 13:40:29;;;;;;;4.60;1.00;;;;;;;;;;5073059;28;20831;-59
2022/09/17 13:42:57;;;;;;;5.63;1.17;;;;;;;;;;5072874;28;20781;-59
2022/09/17 13:45:24;;;;;;;3.53;1.33;;;;;;;;;;5072805;28;20542;-59
2022/09/17 13:47:54;;;;;;;2.70;1.10;;;;;;;;;;5072394;28;20562;-59
2022/09/17 13:50:27;;;;;;;2.50;0.90;;;;;;;;;;5072777;28;20784;-59
2022/09/17 13:52:56;;;;;;;2.37;1.07;;;;;;;;;;5072346;28;20486;-59
2022/09/17 13:55:31;;;;;;;2.93;1.00;;;;;;;;;;5072817;28;20447;-60
2022/09/17 13:58:00;;;;;;;2.07;1.00;;;;;;;;;;5072681;28;20861;-60
2022/09/17 14:00:46;;;;;;;1.60;1.07;;;;;;;;;;5072626;28;20477;-59
2022/09/17 14:03:32;;;;;;;3.63;0.90;;;;;;;;;;5072777;28;20811;-59
2022/09/17 14:06:21;;;;;;;5.20;1.43;;;;;;;;;;5072653;28;20542;-60
2022/09/17 14:08:50;;;;;;;4.90;1.93;;;;;;;;;;5072400;28;20470;-60
2022/09/17 14:11:32;;;;;;;1.63;1.40;;;;;;;;;;5072780;28;20452;-59
2022/09/17 14:14:20;;;;;;;2.10;1.33;;;;;;;;;;5072166;28;20489;-59
2022/09/17 14:16:49;;;;;;;2.43;1.20;;;;;;;;;;5072270;28;20458;-60
2022/09/17 14:19:25;;;;;;;2.10;0.83;;;;;;;;;;5072319;28;20475;-59
2022/09/17 14:22:00;;;;;;;1.83;1.10;;;;;;;;;;5072558;28;20622;-60
2022/09/17 14:24:32;;;;;;;4.70;1.13;;;;;;;;;;5072539;28;20497;-59
2022/09/17 14:27:07;;;;;;;1.93;1.20;;;;;;;;;;5072335;28;20448;-59
2022/09/17 14:29:52;;;;;;;2.40;1.20;;;;;;;;;;5072371;28;20453;-60
2022/09/17 14:32:24;;;;;;;2.37;0.90;;;;;;;;;;5065103;28;20451;-60
2022/09/17 14:34:51;;;;;;;3.80;1.13;;;;;;;;;;5072222;28;20454;-59
2022/09/17 14:37:21;;;;;;;5.57;1.10;;;;;;;;;;5073544;28;20455;-59
2022/09/17 14:39:49;;;;;;;4.10;1.47;;;;;;;;;;5076200;28;20473;-59
2022/09/17 14:42:19;;;;;;;2.67;1.47;;;;;;;;;;5075953;28;20447;-60
2022/09/17 14:44:53;;;;;;;3.37;1.17;;;;;;;;;;5076178;28;20451;-59
2022/09/17 14:47:21;;;;;;;2.80;1.13;;;;;;;;;;5075795;28;20501;-59
2022/09/17 14:49:49;;;;;;;3.63;1.30;;;;;;;;;;5075928;28;20489;-60
2022/09/17 14:52:23;;;;;;;2.70;1.17;;;;;;;;;;5075714;28;20555;-59
2022/09/17 14:55:09;;;;;;;2.80;1.37;;;;;;;;;;5075662;28;20471;-59
2022/09/17 14:57:36;;;;;;;2.80;1.17;;;;;;;;;;5075954;28;20455;-60
2022/09/17 15:00:05;;;;;;;7.33;2.50;;;;;;;;;;5075716;28;20443;-59